首页
METAR-TAF:

METAR-TAF

机场 :

威靈頓國際機場

惠灵顿, 新西兰

纬度: 41-20S, 经度: 174-48E, 海拔: 12米

当前天气观测

该预报发布于11分钟前的00:00 UTC
风速16节,风向
温度 15°C
湿度 67%
气压 999 hPa
能见度10公里或以上

METAR: NZWN 170000Z AUTO 01016KT 9999 SCT026/// BKN031/// BKN100/// 15/09 Q0999 NOSIG

时间: 12:11 (00:11 UTC)

预报

该预报发布于1小时和2分钟前的23:09 UTC
预报有效从17日的 00点(UTC)到 18日的 00点(UTC)
风速15节,风向
能见度10公里或以上
多云层高于2000英尺
成为
从 17日的 10点(UTC)到 17日的 12点(UTC)
风速10节,风向南转西南
成为
从 17日的 14点(UTC)到 17日的 16点(UTC)
风速20节,风向南转西南,有时为30节阵风
短暂存在
从 17日的 14点(UTC)到 17日的 21点(UTC)
能見度: 5000
多云层高于1200英尺
少量云层高于2000英尺, 塔状积云.
阵雨

TAF: NZWN 162309Z 1700/1800 35015KT 9999 BKN020 BECMG 1710/1712 20010KT BECMG 1714/1716 20020G30KT TEMPO 1714/1721 5000 SHRA BKN012 FEW020TCU

超过4000个机场的气象观测和天气预报(METAR&TAF报告)。

可查询的气象台以黄色和红色小点在地图上表示。

将鼠标移到小点上方,可查看气象台名称。

然后点击查看天气观测和预报。

如需切换地图:点击带黑十字的绿色按钮放大地图;点击带横线的绿色按钮缩小地图;或者点击绿色箭头查看邻近地区的地图。


METAR-TAF: